createdAt,value
2022-11-02T00:00:45.953Z,100429.59
2022-11-02T00:03:17.184Z,100429.39
2022-11-02T00:05:48.492Z,100435.50
2022-11-02T00:08:19.728Z,100440.60
2022-11-02T00:10:51.051Z,100442.02
2022-11-02T00:13:24.120Z,100441.91
2022-11-02T00:15:55.615Z,100445.16
2022-11-02T00:18:26.817Z,100453.30
2022-11-02T00:20:58.771Z,100452.59
2022-11-02T00:23:31.301Z,100455.98
2022-11-02T00:26:04.568Z,100452.38
2022-11-02T00:28:36.108Z,100452.20
2022-11-02T00:31:08.308Z,100454.66
2022-11-02T00:33:39.502Z,100460.55
2022-11-02T00:36:11.689Z,100458.02
2022-11-02T00:38:43.490Z,100461.25
2022-11-02T00:41:14.768Z,100473.20
2022-11-02T00:43:46.011Z,100472.10
2022-11-02T00:46:17.463Z,100473.13
2022-11-02T00:48:48.773Z,100474.75
2022-11-02T00:51:20.170Z,100467.89
2022-11-02T00:53:51.464Z,100470.06
2022-11-02T00:56:22.918Z,100468.09
2022-11-02T00:58:54.493Z,100467.26
2022-11-02T01:01:25.755Z,100473.12
2022-11-02T01:03:58.911Z,100466.45
2022-11-02T01:06:30.143Z,100466.11
2022-11-02T01:09:01.321Z,100473.23
2022-11-02T01:11:32.564Z,100476.67
2022-11-02T01:14:04.187Z,100476.58
2022-11-02T01:16:35.461Z,100474.39
2022-11-02T01:19:06.693Z,100475.34
2022-11-02T01:21:37.928Z,100477.33
2022-11-02T01:24:10.250Z,100471.13
2022-11-02T01:26:41.469Z,100466.63
2022-11-02T01:29:12.666Z,100469.95
2022-11-02T01:31:43.849Z,100467.44
2022-11-02T01:34:15.792Z,100449.83
2022-11-02T01:36:49.437Z,100447.35
2022-11-02T01:39:21.436Z,100442.92
2022-11-02T01:41:55.530Z,100442.56
2022-11-02T01:44:33.633Z,100445.65
2022-11-02T01:47:09.282Z,100443.38
2022-11-02T01:49:44.329Z,100444.32
2022-11-02T01:52:20.142Z,100436.14
2022-11-02T01:54:55.486Z,100436.26
2022-11-02T01:57:29.784Z,100434.43
2022-11-02T02:00:07.082Z,100427.10
2022-11-02T02:02:48.839Z,100428.81
2022-11-02T02:05:22.116Z,100428.41
2022-11-02T02:07:56.475Z,100423.09
2022-11-02T02:10:27.781Z,100415.46
2022-11-02T02:13:00.478Z,100411.79
2022-11-02T02:15:42.629Z,100417.42
2022-11-02T02:18:20.133Z,100423.73
2022-11-02T02:21:07.005Z,100423.40
2022-11-02T02:23:58.230Z,100420.62
2022-11-02T02:27:05.455Z,100417.31
2022-11-02T02:29:47.391Z,100415.48
2022-11-02T02:32:25.612Z,100409.40
2022-11-02T02:35:04.120Z,100404.66
2022-11-02T02:37:41.140Z,100411.48
2022-11-02T02:40:18.743Z,100408.38
2022-11-02T02:42:54.648Z,100401.62
2022-11-02T02:45:28.925Z,100398.11
2022-11-02T02:48:07.944Z,100397.94
2022-11-02T02:50:45.190Z,100392.18
2022-11-02T02:53:18.062Z,100391.47
2022-11-02T02:55:51.501Z,100390.25
2022-11-02T02:58:27.481Z,100385.50
2022-11-02T03:01:01.375Z,100382.95
2022-11-02T03:03:35.661Z,100379.52
2022-11-02T03:06:15.678Z,100385.10
2022-11-02T03:08:58.535Z,100385.02
2022-11-02T03:11:30.442Z,100391.39
2022-11-02T03:14:17.661Z,100393.80
2022-11-02T03:17:15.211Z,100394.05
2022-11-02T03:19:56.568Z,100402.40
2022-11-02T03:22:35.766Z,100407.60
2022-11-02T03:25:16.643Z,100409.86
2022-11-02T03:27:57.409Z,100415.63
2022-11-02T03:30:32.389Z,100423.34
2022-11-02T03:33:08.614Z,100415.52
2022-11-02T03:35:48.792Z,100419.71
2022-11-02T03:38:21.064Z,100416.44
2022-11-02T03:40:57.029Z,100409.76
2022-11-02T03:43:30.408Z,100405.46
2022-11-02T03:46:04.777Z,100409.41
2022-11-02T03:48:41.450Z,100406.60
2022-11-02T03:51:16.485Z,100400.84
2022-11-02T03:53:54.839Z,100398.09
2022-11-02T03:56:30.324Z,100389.61
2022-11-02T03:59:01.948Z,100391.30
2022-11-02T04:01:39.040Z,100397.15
2022-11-02T04:04:10.390Z,100399.69
2022-11-02T04:06:43.547Z,100396.54
2022-11-02T04:09:15.673Z,100393.19
2022-11-02T04:12:05.150Z,100389.08
2022-11-02T04:14:40.232Z,100387.05
2022-11-02T04:17:38.269Z,100383.14
2022-11-02T04:20:14.897Z,100382.53
2022-11-02T04:23:06.679Z,100391.27
2022-11-02T04:25:38.287Z,100390.29
2022-11-02T04:28:17.183Z,100388.66
2022-11-02T04:30:52.104Z,100392.40
2022-11-02T04:33:36.471Z,100386.83
2022-11-02T04:36:25.848Z,100376.56
2022-11-02T04:38:59.683Z,100375.29
2022-11-02T04:41:43.738Z,100380.77
2022-11-02T04:44:24.916Z,100377.45
2022-11-02T04:47:10.632Z,100374.86
2022-11-02T04:49:41.827Z,100378.47
2022-11-02T04:52:15.932Z,100373.53
2022-11-02T04:54:51.094Z,100367.42
2022-11-02T04:57:22.395Z,100368.15
2022-11-02T04:59:54.005Z,100355.77
2022-11-02T05:02:25.577Z,100350.88
2022-11-02T05:04:56.855Z,100351.40
2022-11-02T05:07:28.261Z,100350.47
2022-11-02T05:09:59.449Z,100349.48
2022-11-02T05:12:30.920Z,100340.67
2022-11-02T05:15:05.076Z,100339.46
2022-11-02T05:17:37.122Z,100335.63
2022-11-02T05:20:09.462Z,100335.78
2022-11-02T05:22:44.094Z,100338.40
2022-11-02T05:25:16.050Z,100335.14
2022-11-02T05:27:47.566Z,100335.91
2022-11-02T05:30:19.286Z,100335.59
2022-11-02T05:32:50.610Z,100328.63
2022-11-02T05:35:23.476Z,100319.77
2022-11-02T05:37:57.767Z,100311.84
2022-11-02T05:40:28.997Z,100304.17
2022-11-02T05:43:04.366Z,100295.52
2022-11-02T05:45:38.998Z,100293.70
2022-11-02T05:48:10.787Z,100306.24
2022-11-02T05:50:43.022Z,100316.66
2022-11-02T05:53:14.307Z,100322.31
2022-11-02T05:58:37.289Z,100311.08
2022-11-02T06:01:15.399Z,100293.20
2022-11-02T06:04:12.922Z,100276.45
2022-11-02T06:06:50.576Z,100228.42
2022-11-02T06:09:22.179Z,100213.95
2022-11-02T06:11:53.461Z,100207.84
2022-11-02T06:14:24.674Z,100203.09
2022-11-02T06:16:58.740Z,100200.18
2022-11-02T06:19:30.003Z,100194.43
2022-11-02T06:22:01.411Z,100183.12
2022-11-02T06:24:32.655Z,100179.11
2022-11-02T06:27:05.125Z,100174.87
2022-11-02T06:29:37.402Z,100161.53
2022-11-02T06:32:08.818Z,100159.30
2022-11-02T06:34:40.244Z,100146.66
2022-11-02T06:37:11.433Z,100136.65
2022-11-02T06:39:42.897Z,100120.94
2022-11-02T06:42:14.092Z,100107.48
2022-11-02T06:44:45.298Z,100086.09
2022-11-02T06:47:16.562Z,100067.29
2022-11-02T06:49:47.895Z,100049.67
2022-11-02T06:52:19.225Z,100040.07
2022-11-02T06:54:50.410Z,100035.57
2022-11-02T06:57:22.270Z,100033.80
2022-11-02T06:59:54.267Z,100010.34
2022-11-02T07:02:25.888Z,100010.67
2022-11-02T07:04:58.202Z,100009.33
2022-11-02T07:07:29.615Z,100006.73
2022-11-02T07:10:01.104Z,100002.09
2022-11-02T07:12:32.550Z,99998.18
2022-11-02T07:15:05.280Z,100001.41
2022-11-02T07:17:40.174Z,100009.20
2022-11-02T07:20:12.655Z,99994.59
2022-11-02T07:22:44.416Z,99978.80
2022-11-02T07:25:15.624Z,99970.06
2022-11-02T07:27:46.813Z,99968.52
2022-11-02T07:30:18.220Z,99977.45
2022-11-02T07:32:49.931Z,99973.89
2022-11-02T07:35:21.347Z,99969.06
2022-11-02T07:38:00.685Z,99974.48
2022-11-02T07:40:34.414Z,99978.50
2022-11-02T07:43:09.657Z,99975.42
2022-11-02T07:45:52.831Z,99952.48
2022-11-02T07:48:24.228Z,99923.34
2022-11-02T07:50:55.367Z,99920.70
2022-11-02T07:53:28.786Z,99917.63
2022-11-02T07:56:01.114Z,99917.15
2022-11-02T07:58:32.715Z,99922.96
2022-11-02T08:01:05.053Z,99921.86
2022-11-02T08:03:36.414Z,99915.70
2022-11-02T08:06:08.055Z,99897.05
2022-11-02T08:08:39.405Z,99895.25
2022-11-02T08:11:11.347Z,99889.78
2022-11-02T08:13:42.492Z,99879.23
2022-11-02T08:16:13.705Z,99859.89
2022-11-02T08:18:44.867Z,99849.16
2022-11-02T08:21:17.909Z,99834.28
2022-11-02T08:23:51.776Z,99809.23
2022-11-02T08:26:25.978Z,99808.20
2022-11-02T08:28:57.254Z,99815.52
2022-11-02T08:31:28.890Z,99816.28
2022-11-02T08:34:00.400Z,99794.12
2022-11-02T08:36:31.635Z,99796.83
2022-11-02T08:39:02.772Z,99788.05
2022-11-02T08:41:34.121Z,99769.09
2022-11-02T08:44:05.418Z,99745.81
2022-11-02T08:46:36.634Z,99726.14
2022-11-02T08:49:09.094Z,99727.25
2022-11-02T08:51:40.750Z,99719.70
2022-11-02T08:54:12.494Z,99706.80
2022-11-02T08:56:43.739Z,99682.15
2022-11-02T08:59:14.990Z,99673.98
2022-11-02T09:01:46.336Z,99658.14
2022-11-02T09:04:17.851Z,99644.41
2022-11-02T09:06:49.317Z,99629.51
2022-11-02T09:09:20.525Z,99613.27
2022-11-02T09:11:53.940Z,99614.30
2022-11-02T09:14:25.380Z,99601.02
2022-11-02T09:16:56.600Z,99600.30
2022-11-02T09:19:28.005Z,99588.77
2022-11-02T09:22:02.575Z,99588.79
2022-11-02T09:24:36.269Z,99571.30
2022-11-02T09:27:07.510Z,99568.60
2022-11-02T09:29:38.911Z,99575.75
2022-11-02T09:32:10.244Z,99567.98
2022-11-02T09:34:41.519Z,99539.04
2022-11-02T09:37:12.802Z,99519.23
2022-11-02T09:39:44.106Z,99509.34
2022-11-02T09:42:24.399Z,99507.55
2022-11-02T09:45:01.247Z,99494.31
2022-11-02T09:48:14.686Z,99483.10
2022-11-02T09:50:42.551Z,99472.16
2022-11-02T09:53:21.186Z,99453.44
2022-11-02T09:55:59.024Z,99455.13
2022-11-02T09:58:37.431Z,99456.27
2022-11-02T10:01:19.134Z,99425.14
2022-11-02T10:04:08.515Z,99407.98
2022-11-02T10:06:43.815Z,99396.98
2022-11-02T10:09:22.315Z,99373.83
2022-11-02T10:12:00.947Z,99360.37
2022-11-02T10:14:36.838Z,99364.45
2022-11-02T10:17:17.564Z,99345.56
2022-11-02T10:19:54.715Z,99337.05
2022-11-02T10:22:30.636Z,99319.31
2022-11-02T10:25:05.695Z,99319.23
2022-11-02T10:27:40.477Z,99322.37
2022-11-02T10:30:15.850Z,99318.52
2022-11-02T10:32:49.359Z,99311.54
2022-11-02T10:35:41.031Z,99303.16
2022-11-02T10:38:35.877Z,99281.66
2022-11-02T10:41:24.646Z,99264.21
2022-11-02T10:44:14.146Z,99254.66
2022-11-02T10:46:59.633Z,99243.89
2022-11-02T10:49:48.911Z,99235.48
2022-11-02T10:52:20.723Z,99251.29
2022-11-02T10:54:54.694Z,99244.16
2022-11-02T10:57:29.434Z,99238.19
2022-11-02T11:00:25.187Z,99235.00
2022-11-02T11:03:11.749Z,99217.55
2022-11-02T11:05:59.372Z,99214.09
2022-11-02T11:08:38.415Z,99221.26
2022-11-02T11:11:22.714Z,99223.08
2022-11-02T11:19:56.142Z,99201.94
2022-11-02T11:22:30.430Z,99161.41
2022-11-02T11:25:27.933Z,99139.50
2022-11-02T11:28:01.689Z,99117.08
2022-11-02T11:30:58.980Z,99105.14
2022-11-02T11:33:28.446Z,99097.27
2022-11-02T11:36:00.398Z,99094.58
2022-11-02T11:38:31.916Z,99085.63
2022-11-02T11:41:03.875Z,99071.64
2022-11-02T11:43:39.454Z,99068.91
2022-11-02T11:46:12.976Z,99057.85
2022-11-02T11:48:47.837Z,99067.61
2022-11-02T11:51:36.564Z,99099.15
2022-11-02T11:54:23.523Z,99100.31
2022-11-02T11:56:56.459Z,99084.77
2022-11-02T11:59:45.434Z,99063.90
2022-11-02T12:02:25.817Z,99071.48
2022-11-02T12:05:02.292Z,99078.40
2022-11-02T12:07:56.049Z,99049.17
2022-11-02T12:10:41.660Z,99037.02
2022-11-02T12:13:28.259Z,99035.34
2022-11-02T12:16:15.235Z,99027.39
2022-11-02T12:19:02.750Z,99012.42
2022-11-02T12:21:47.430Z,99011.20
2022-11-02T12:24:35.488Z,99004.80
2022-11-02T12:27:29.460Z,98995.19
2022-11-02T12:30:15.259Z,99004.17
2022-11-02T12:32:55.009Z,99015.45
2022-11-02T12:35:59.910Z,99018.53
2022-11-02T12:38:56.818Z,99034.09
2022-11-02T12:41:42.257Z,99042.16
2022-11-02T12:44:29.113Z,99041.11
2022-11-02T12:47:08.708Z,99046.80
2022-11-02T12:49:52.472Z,99043.68
2022-11-02T12:52:39.824Z,99057.29
2022-11-02T12:55:17.739Z,99048.20
2022-11-02T12:57:50.497Z,99043.47
2022-11-02T13:00:24.370Z,99053.42
2022-11-02T13:03:03.510Z,99048.41
2022-11-02T13:05:40.985Z,99034.96
2022-11-02T13:08:18.180Z,99027.08
2022-11-02T13:10:54.053Z,99015.23
2022-11-02T13:13:34.677Z,99017.25
2022-11-02T13:16:09.162Z,99012.59
2022-11-02T13:18:47.185Z,98999.85
2022-11-02T13:21:22.507Z,98989.40
2022-11-02T13:23:58.028Z,98984.35
2022-11-02T13:26:37.983Z,98986.30
2022-11-02T13:29:18.929Z,98983.40
2022-11-02T13:31:54.265Z,98969.29
2022-11-02T13:34:33.935Z,98967.69
2022-11-02T13:37:12.291Z,98977.48
2022-11-02T13:39:47.759Z,98985.65
2022-11-02T13:42:48.982Z,98972.05
2022-11-02T13:48:38.887Z,98974.77
2022-11-02T13:51:18.919Z,98960.12
2022-11-02T13:53:55.911Z,98965.57
2022-11-02T13:56:30.476Z,98966.84
2022-11-02T13:59:05.220Z,98963.61
2022-11-02T14:01:41.205Z,98948.84
2022-11-02T14:04:15.271Z,98954.02
2022-11-02T14:06:54.792Z,98954.86
2022-11-02T14:09:30.949Z,98957.45
2022-11-02T14:12:29.815Z,98976.55
2022-11-02T14:15:50.304Z,98964.66
2022-11-02T14:18:32.758Z,98959.56
2022-11-02T14:21:43.366Z,98964.63
2022-11-02T14:24:49.428Z,98967.47
2022-11-02T14:27:33.475Z,98960.91
2022-11-02T14:30:05.075Z,98947.84
2022-11-02T14:32:46.566Z,98942.98
2022-11-02T14:35:40.374Z,98950.70
2022-11-02T14:38:31.656Z,98940.59
2022-11-02T14:41:17.205Z,98940.09
2022-11-02T14:44:16.378Z,98949.39
2022-11-02T15:47:28.998Z,98940.52
2022-11-02T15:50:34.510Z,98944.99
2022-11-02T15:53:46.673Z,98953.85
2022-11-02T15:56:47.319Z,98950.80
2022-11-02T15:59:53.835Z,98963.84
2022-11-02T16:02:45.780Z,98953.71
2022-11-02T16:05:44.154Z,98952.60
2022-11-02T16:08:37.441Z,98944.98
2022-11-02T16:11:27.125Z,98944.73
2022-11-02T16:14:17.922Z,98947.89
2022-11-02T16:17:18.153Z,98952.24
2022-11-02T16:20:16.509Z,98953.88
2022-11-02T16:23:07.751Z,98943.70
2022-11-02T16:26:00.122Z,98947.77
2022-11-02T16:28:52.478Z,98949.44
2022-11-02T16:31:44.931Z,98947.80
2022-11-02T16:34:34.759Z,98940.63
2022-11-02T16:37:24.741Z,98938.66
2022-11-02T16:40:19.423Z,98937.63
2022-11-02T16:43:14.852Z,98926.92
2022-11-02T16:46:06.561Z,98935.92
2022-11-02T16:49:17.964Z,98927.21
2022-11-02T16:52:19.572Z,98951.54
2022-11-02T16:55:39.309Z,98963.30
2022-11-02T16:58:30.060Z,98969.89
2022-11-02T17:01:22.883Z,98962.84
2022-11-02T17:04:19.923Z,98963.86
2022-11-02T17:07:15.192Z,98968.02
2022-11-02T17:10:06.984Z,98964.79
2022-11-02T17:12:59.513Z,98973.22
2022-11-02T17:16:03.159Z,98978.30
2022-11-02T17:18:52.476Z,98974.95
2022-11-02T17:21:44.707Z,98994.80
2022-11-02T17:24:35.877Z,98977.20
2022-11-02T17:27:28.217Z,98981.06
2022-11-02T17:30:51.676Z,98992.48
2022-11-02T17:33:44.360Z,98986.25
2022-11-02T17:36:42.368Z,98999.80
2022-11-02T17:39:34.760Z,99011.05
2022-11-02T17:42:42.353Z,99011.16
2022-11-02T17:45:47.652Z,99003.16
2022-11-02T17:48:37.321Z,99010.40
2022-11-02T17:51:27.137Z,99020.38
2022-11-02T17:54:16.846Z,99012.14
2022-11-02T17:57:11.419Z,99024.27
2022-11-02T18:00:00.718Z,99015.45
2022-11-02T18:02:51.828Z,99020.45
2022-11-02T18:05:43.655Z,99024.19
2022-11-02T18:09:00.638Z,99040.27
2022-11-02T18:11:50.512Z,99057.70
2022-11-02T18:14:40.175Z,99056.95
2022-11-02T18:17:34.671Z,99053.21
2022-11-02T18:20:27.953Z,99062.89
2022-11-02T18:23:19.513Z,99068.41
2022-11-02T18:26:09.684Z,99066.89
2022-11-02T18:28:58.861Z,99094.98
2022-11-02T18:31:49.636Z,99090.86
2022-11-02T18:34:39.245Z,99092.58
2022-11-02T18:37:39.836Z,99097.73
2022-11-02T18:40:35.320Z,99093.95
2022-11-02T18:43:27.594Z,99110.30
2022-11-02T18:46:17.074Z,99116.92
2022-11-02T18:49:06.721Z,99117.33
2022-11-02T18:51:56.109Z,99130.29
2022-11-02T18:54:45.637Z,99134.67
2022-11-02T18:57:37.855Z,99142.80
2022-11-02T19:00:27.485Z,99141.07
2022-11-02T19:03:18.502Z,99147.85
2022-11-02T19:06:26.750Z,99155.92
2022-11-02T19:09:22.328Z,99158.57
2022-11-02T19:12:15.732Z,99175.95
2022-11-02T19:15:06.291Z,99185.98
2022-11-02T19:17:56.000Z,99185.17
2022-11-02T19:20:45.529Z,99178.44
2022-11-02T19:23:36.579Z,99184.95
2022-11-02T19:26:27.270Z,99200.17
2022-11-02T19:29:17.217Z,99203.74
2022-11-02T19:32:07.606Z,99202.03
2022-11-02T19:35:00.505Z,99212.02
2022-11-02T19:38:01.775Z,99217.55
2022-11-02T19:41:01.718Z,99226.97
2022-11-02T19:43:51.211Z,99229.61
2022-11-02T19:49:36.230Z,99229.64
2022-11-02T19:52:26.161Z,99242.30
2022-11-02T19:55:16.838Z,99243.69
2022-11-02T19:58:07.419Z,99243.91
2022-11-02T20:00:57.302Z,99246.66
2022-11-02T20:03:47.875Z,99252.71
2022-11-02T20:06:40.040Z,99270.95
2022-11-02T20:09:30.346Z,99279.15
2022-11-02T20:12:20.232Z,99278.23
2022-11-02T20:15:11.613Z,99283.35
2022-11-02T20:18:18.825Z,99291.35
2022-11-02T20:21:12.219Z,99297.41
2022-11-02T20:24:01.803Z,99307.64
2022-11-02T20:26:56.152Z,99319.87
2022-11-02T20:29:46.952Z,99329.04
2022-11-02T20:32:37.455Z,99342.00
2022-11-02T20:35:26.831Z,99354.73
2022-11-02T20:38:16.941Z,99355.20
2022-11-02T20:41:09.668Z,99364.47
2022-11-02T20:44:00.393Z,99371.35
2022-11-02T20:46:53.335Z,99375.27
2022-11-02T20:49:50.649Z,99383.98
2022-11-02T20:52:40.854Z,99395.39
2022-11-02T20:55:31.121Z,99390.05
2022-11-02T20:58:20.617Z,99404.37
2022-11-02T21:01:11.269Z,99405.77
2022-11-02T21:04:01.656Z,99415.88
2022-11-02T21:06:52.469Z,99414.96
2022-11-02T21:09:42.589Z,99430.00
2022-11-02T21:12:51.887Z,99432.14
2022-11-02T21:15:42.761Z,99435.75
2022-11-02T21:18:34.470Z,99430.80
2022-11-02T21:21:25.345Z,99426.79
2022-11-02T21:24:17.416Z,99426.64
2022-11-02T21:27:07.619Z,99432.84
2022-11-02T21:29:58.239Z,99430.39
2022-11-02T21:32:51.911Z,99432.58
2022-11-02T21:35:41.905Z,99449.15
2022-11-02T21:38:33.576Z,99457.48
2022-11-02T21:41:25.936Z,99465.48
2022-11-02T21:44:16.444Z,99468.11
2022-11-02T21:47:08.903Z,99468.32
2022-11-02T21:49:58.496Z,99468.77
2022-11-02T21:52:48.779Z,99473.67
2022-11-02T21:55:50.774Z,99479.13
2022-11-02T22:08:05.261Z,99493.82
2022-11-02T22:11:00.247Z,99492.63
2022-11-02T22:14:31.138Z,99509.84
2022-11-02T22:17:49.779Z,99519.90
2022-11-02T22:21:35.718Z,99528.38
2022-11-02T22:25:36.675Z,99536.33
2022-11-02T22:29:10.830Z,99523.25
2022-11-02T22:32:27.492Z,99528.64
2022-11-02T22:35:28.677Z,99536.52
2022-11-02T22:38:39.559Z,99540.25
2022-11-02T22:41:35.190Z,99551.90
2022-11-02T22:44:47.156Z,99551.48
2022-11-02T22:47:39.320Z,99544.71
2022-11-02T22:50:28.868Z,99553.73
2022-11-02T22:53:18.429Z,99545.30
2022-11-02T22:56:12.301Z,99556.53
2022-11-02T22:59:01.994Z,99569.74
2022-11-02T23:01:51.687Z,99568.68
2022-11-02T23:04:41.311Z,99565.95
2022-11-02T23:07:31.834Z,99574.60
2022-11-02T23:10:56.001Z,99577.87
2022-11-02T23:13:47.358Z,99594.23
2022-11-02T23:16:38.166Z,99603.43
2022-11-02T23:19:29.863Z,99600.83
2022-11-02T23:22:37.961Z,99607.77
2022-11-02T23:25:27.713Z,99619.50
2022-11-02T23:28:40.180Z,99621.80
2022-11-02T23:31:48.393Z,99628.89
2022-11-02T23:35:09.339Z,99629.63
2022-11-02T23:38:59.206Z,99632.28
2022-11-02T23:42:00.438Z,99632.91
2022-11-02T23:44:52.708Z,99625.90
2022-11-02T23:48:01.295Z,99629.66
2022-11-02T23:51:08.978Z,99632.04
2022-11-02T23:54:17.113Z,99638.17
2022-11-02T23:57:07.250Z,99635.96
2022-11-02T23:59:56.876Z,99643.27
